sensor_id;sensor_type;location;lat;lon;timestamp;temperature;humidity
65374;SHT31;52070;53.760;9.678;2022-07-23T00:00:40;14.96;79.40
65374;SHT31;52070;53.760;9.678;2022-07-23T00:03:08;14.93;79.55
65374;SHT31;52070;53.760;9.678;2022-07-23T00:05:35;14.99;79.54
65374;SHT31;52070;53.760;9.678;2022-07-23T00:08:03;15.02;79.47
65374;SHT31;52070;53.760;9.678;2022-07-23T00:10:30;15.00;79.42
65374;SHT31;52070;53.760;9.678;2022-07-23T00:12:57;15.02;79.43
65374;SHT31;52070;53.760;9.678;2022-07-23T00:15:24;14.99;79.43
65374;SHT31;52070;53.760;9.678;2022-07-23T00:17:51;15.03;79.33
65374;SHT31;52070;53.760;9.678;2022-07-23T00:20:20;15.06;79.29
65374;SHT31;52070;53.760;9.678;2022-07-23T00:22:47;15.07;79.11
65374;SHT31;52070;53.760;9.678;2022-07-23T00:25:14;15.04;78.88
65374;SHT31;52070;53.760;9.678;2022-07-23T00:27:42;15.06;79.12
65374;SHT31;52070;53.760;9.678;2022-07-23T00:30:10;15.04;79.31
65374;SHT31;52070;53.760;9.678;2022-07-23T00:32:45;15.03;79.49
65374;SHT31;52070;53.760;9.678;2022-07-23T00:35:12;15.02;78.96
65374;SHT31;52070;53.760;9.678;2022-07-23T00:37:40;15.04;79.18
65374;SHT31;52070;53.760;9.678;2022-07-23T00:40:08;15.09;79.17
65374;SHT31;52070;53.760;9.678;2022-07-23T00:42:36;15.11;79.28
65374;SHT31;52070;53.760;9.678;2022-07-23T00:45:03;15.06;79.09
65374;SHT31;52070;53.760;9.678;2022-07-23T00:47:30;15.04;79.28
65374;SHT31;52070;53.760;9.678;2022-07-23T00:49:57;15.02;79.53
65374;SHT31;52070;53.760;9.678;2022-07-23T00:52:24;14.96;79.59
65374;SHT31;52070;53.760;9.678;2022-07-23T00:54:53;14.96;79.95
65374;SHT31;52070;53.760;9.678;2022-07-23T00:57:20;14.98;79.76
65374;SHT31;52070;53.760;9.678;2022-07-23T00:59:47;14.99;79.71
65374;SHT31;52070;53.760;9.678;2022-07-23T01:02:14;14.93;79.51
65374;SHT31;52070;53.760;9.678;2022-07-23T01:04:41;14.92;79.66
65374;SHT31;52070;53.760;9.678;2022-07-23T01:07:08;14.89;79.67
65374;SHT31;52070;53.760;9.678;2022-07-23T01:09:36;14.86;79.69
65374;SHT31;52070;53.760;9.678;2022-07-23T01:12:06;14.92;79.78
65374;SHT31;52070;53.760;9.678;2022-07-23T01:14:33;14.89;79.86
65374;SHT31;52070;53.760;9.678;2022-07-23T01:17:00;14.90;79.74
65374;SHT31;52070;53.760;9.678;2022-07-23T01:19:27;14.88;79.86
65374;SHT31;52070;53.760;9.678;2022-07-23T01:21:57;14.86;79.84
65374;SHT31;52070;53.760;9.678;2022-07-23T01:24:25;14.83;80.11
65374;SHT31;52070;53.760;9.678;2022-07-23T01:26:53;14.76;80.21
65374;SHT31;52070;53.760;9.678;2022-07-23T01:29:20;14.76;80.43
65374;SHT31;52070;53.760;9.678;2022-07-23T01:31:48;14.72;80.61
65374;SHT31;52070;53.760;9.678;2022-07-23T01:34:15;14.71;80.66
65374;SHT31;52070;53.760;9.678;2022-07-23T01:36:42;14.71;80.94
65374;SHT31;52070;53.760;9.678;2022-07-23T01:39:09;14.69;80.95
65374;SHT31;52070;53.760;9.678;2022-07-23T01:41:37;14.75;80.93
65374;SHT31;52070;53.760;9.678;2022-07-23T01:44:04;14.72;80.88
65374;SHT31;52070;53.760;9.678;2022-07-23T01:46:31;14.75;80.94
65374;SHT31;52070;53.760;9.678;2022-07-23T01:48:58;14.73;80.95
65374;SHT31;52070;53.760;9.678;2022-07-23T01:51:25;14.72;81.05
65374;SHT31;52070;53.760;9.678;2022-07-23T01:53:52;14.72;81.02
65374;SHT31;52070;53.760;9.678;2022-07-23T01:56:19;14.72;81.27
65374;SHT31;52070;53.760;9.678;2022-07-23T01:58:48;14.71;81.37
65374;SHT31;52070;53.760;9.678;2022-07-23T02:01:15;14.72;81.23
65374;SHT31;52070;53.760;9.678;2022-07-23T02:03:42;14.73;81.12
65374;SHT31;52070;53.760;9.678;2022-07-23T02:06:10;14.75;81.31
65374;SHT31;52070;53.760;9.678;2022-07-23T02:08:37;14.78;81.32
65374;SHT31;52070;53.760;9.678;2022-07-23T02:11:04;14.80;81.01
65374;SHT31;52070;53.760;9.678;2022-07-23T02:13:31;14.79;81.32
65374;SHT31;52070;53.760;9.678;2022-07-23T02:15:59;14.79;81.26
65374;SHT31;52070;53.760;9.678;2022-07-23T02:18:26;14.79;81.27
65374;SHT31;52070;53.760;9.678;2022-07-23T02:20:53;14.82;81.42
65374;SHT31;52070;53.760;9.678;2022-07-23T02:23:20;14.82;81.13
65374;SHT31;52070;53.760;9.678;2022-07-23T02:25:48;14.83;81.02
65374;SHT31;52070;53.760;9.678;2022-07-23T02:28:15;14.85;81.07
65374;SHT31;52070;53.760;9.678;2022-07-23T02:30:42;14.88;80.89
65374;SHT31;52070;53.760;9.678;2022-07-23T02:33:11;14.88;80.97
65374;SHT31;52070;53.760;9.678;2022-07-23T02:35:38;14.89;80.75
65374;SHT31;52070;53.760;9.678;2022-07-23T02:38:05;14.89;80.72
65374;SHT31;52070;53.760;9.678;2022-07-23T02:40:32;14.88;80.87
65374;SHT31;52070;53.760;9.678;2022-07-23T02:42:59;14.89;80.56
65374;SHT31;52070;53.760;9.678;2022-07-23T02:45:26;14.88;80.72
65374;SHT31;52070;53.760;9.678;2022-07-23T02:47:53;14.90;80.63
65374;SHT31;52070;53.760;9.678;2022-07-23T02:50:21;14.90;80.68
65374;SHT31;52070;53.760;9.678;2022-07-23T02:52:48;14.92;80.48
65374;SHT31;52070;53.760;9.678;2022-07-23T02:55:15;14.89;80.34
65374;SHT31;52070;53.760;9.678;2022-07-23T02:57:42;14.88;80.58
65374;SHT31;52070;53.760;9.678;2022-07-23T03:00:10;14.82;80.43
65374;SHT31;52070;53.760;9.678;2022-07-23T03:02:37;14.78;80.75
65374;SHT31;52070;53.760;9.678;2022-07-23T03:05:05;14.80;80.63
65374;SHT31;52070;53.760;9.678;2022-07-23T03:07:34;14.82;80.69
65374;SHT31;52070;53.760;9.678;2022-07-23T03:10:01;14.80;80.33
65374;SHT31;52070;53.760;9.678;2022-07-23T03:12:28;14.73;80.18
65374;SHT31;52070;53.760;9.678;2022-07-23T03:14:55;14.75;80.28
65374;SHT31;52070;53.760;9.678;2022-07-23T03:17:22;14.76;80.56
65374;SHT31;52070;53.760;9.678;2022-07-23T03:19:49;14.72;80.51
65374;SHT31;52070;53.760;9.678;2022-07-23T03:22:16;14.71;80.42
65374;SHT31;52070;53.760;9.678;2022-07-23T03:24:44;14.66;80.56
65374;SHT31;52070;53.760;9.678;2022-07-23T03:27:21;14.65;80.68
65374;SHT31;52070;53.760;9.678;2022-07-23T03:29:48;14.64;80.87
65374;SHT31;52070;53.760;9.678;2022-07-23T03:32:16;14.59;81.08
65374;SHT31;52070;53.760;9.678;2022-07-23T03:34:43;14.61;80.91
65374;SHT31;52070;53.760;9.678;2022-07-23T03:37:10;14.56;81.02
65374;SHT31;52070;53.760;9.678;2022-07-23T03:39:37;14.58;80.88
65374;SHT31;52070;53.760;9.678;2022-07-23T03:42:06;14.55;80.87
65374;SHT31;52070;53.760;9.678;2022-07-23T03:44:34;14.58;80.72
65374;SHT31;52070;53.760;9.678;2022-07-23T03:47:02;14.61;80.72
65374;SHT31;52070;53.760;9.678;2022-07-23T03:49:29;14.64;80.71
65374;SHT31;52070;53.760;9.678;2022-07-23T03:51:57;14.68;80.60
65374;SHT31;52070;53.760;9.678;2022-07-23T03:54:24;14.69;80.86
65374;SHT31;52070;53.760;9.678;2022-07-23T03:56:51;14.71;81.04
65374;SHT31;52070;53.760;9.678;2022-07-23T03:59:19;14.72;80.72
65374;SHT31;52070;53.760;9.678;2022-07-23T04:01:46;14.76;80.96
65374;SHT31;52070;53.760;9.678;2022-07-23T04:04:13;14.73;80.74
65374;SHT31;52070;53.760;9.678;2022-07-23T04:06:40;14.73;80.34
65374;SHT31;52070;53.760;9.678;2022-07-23T04:09:07;14.75;80.36
65374;SHT31;52070;53.760;9.678;2022-07-23T04:11:34;14.75;80.50
65374;SHT31;52070;53.760;9.678;2022-07-23T04:14:01;14.73;80.56
65374;SHT31;52070;53.760;9.678;2022-07-23T04:16:30;14.75;80.40
65374;SHT31;52070;53.760;9.678;2022-07-23T04:18:57;14.72;80.23
65374;SHT31;52070;53.760;9.678;2022-07-23T04:21:24;14.73;80.18
65374;SHT31;52070;53.760;9.678;2022-07-23T04:23:51;14.76;80.07
65374;SHT31;52070;53.760;9.678;2022-07-23T04:26:18;14.76;80.06
65374;SHT31;52070;53.760;9.678;2022-07-23T04:28:47;14.79;80.08
65374;SHT31;52070;53.760;9.678;2022-07-23T04:31:14;14.83;80.00
65374;SHT31;52070;53.760;9.678;2022-07-23T04:33:42;14.86;79.94
65374;SHT31;52070;53.760;9.678;2022-07-23T04:36:09;14.90;80.14
65374;SHT31;52070;53.760;9.678;2022-07-23T04:38:36;14.90;80.24
65374;SHT31;52070;53.760;9.678;2022-07-23T04:41:03;14.93;80.04
65374;SHT31;52070;53.760;9.678;2022-07-23T04:43:30;14.92;79.55
65374;SHT31;52070;53.760;9.678;2022-07-23T04:45:57;14.89;79.11
65374;SHT31;52070;53.760;9.678;2022-07-23T04:48:24;14.88;79.29
65374;SHT31;52070;53.760;9.678;2022-07-23T04:50:53;14.88;79.42
65374;SHT31;52070;53.760;9.678;2022-07-23T04:53:20;14.86;79.16
65374;SHT31;52070;53.760;9.678;2022-07-23T04:55:47;14.85;79.21
65374;SHT31;52070;53.760;9.678;2022-07-23T04:58:14;14.85;79.21
65374;SHT31;52070;53.760;9.678;2022-07-23T05:00:41;14.85;78.95
65374;SHT31;52070;53.760;9.678;2022-07-23T05:03:08;14.92;79.05
65374;SHT31;52070;53.760;9.678;2022-07-23T05:05:38;15.04;78.56
65374;SHT31;52070;53.760;9.678;2022-07-23T05:08:06;14.99;78.67
65374;SHT31;52070;53.760;9.678;2022-07-23T05:10:33;14.92;78.42
65374;SHT31;52070;53.760;9.678;2022-07-23T05:13:01;14.95;78.87
65374;SHT31;52070;53.760;9.678;2022-07-23T05:15:28;15.02;78.24
65374;SHT31;52070;53.760;9.678;2022-07-23T05:17:56;15.02;78.34
65374;SHT31;52070;53.760;9.678;2022-07-23T05:20:23;15.02;77.94
65374;SHT31;52070;53.760;9.678;2022-07-23T05:22:50;14.99;78.14
65374;SHT31;52070;53.760;9.678;2022-07-23T05:25:18;15.02;78.12
65374;SHT31;52070;53.760;9.678;2022-07-23T05:27:48;14.98;78.27
65374;SHT31;52070;53.760;9.678;2022-07-23T05:30:15;15.02;78.72
65374;SHT31;52070;53.760;9.678;2022-07-23T05:32:42;15.00;78.66
65374;SHT31;52070;53.760;9.678;2022-07-23T05:35:09;14.99;78.97
65374;SHT31;52070;53.760;9.678;2022-07-23T05:37:36;14.92;79.35
65374;SHT31;52070;53.760;9.678;2022-07-23T05:40:04;14.93;79.54
65374;SHT31;52070;53.760;9.678;2022-07-23T05:42:34;14.95;80.02
65374;SHT31;52070;53.760;9.678;2022-07-23T05:45:02;14.95;80.08
65374;SHT31;52070;53.760;9.678;2022-07-23T05:47:39;14.92;80.56
65374;SHT31;52070;53.760;9.678;2022-07-23T05:50:06;14.93;80.85
65374;SHT31;52070;53.760;9.678;2022-07-23T05:52:33;14.95;81.02
65374;SHT31;52070;53.760;9.678;2022-07-23T05:55:00;14.88;81.11
65374;SHT31;52070;53.760;9.678;2022-07-23T05:57:28;14.86;81.53
65374;SHT31;52070;53.760;9.678;2022-07-23T05:59:56;14.90;81.84
65374;SHT31;52070;53.760;9.678;2022-07-23T06:02:23;14.96;81.05
65374;SHT31;52070;53.760;9.678;2022-07-23T06:04:50;14.95;81.07
65374;SHT31;52070;53.760;9.678;2022-07-23T06:07:17;14.85;81.43
65374;SHT31;52070;53.760;9.678;2022-07-23T06:09:44;14.76;81.44
65374;SHT31;52070;53.760;9.678;2022-07-23T06:12:15;14.78;81.73
65374;SHT31;52070;53.760;9.678;2022-07-23T06:14:42;14.73;81.69
65374;SHT31;52070;53.760;9.678;2022-07-23T06:17:11;14.75;81.24
65374;SHT31;52070;53.760;9.678;2022-07-23T06:19:38;14.82;81.38
65374;SHT31;52070;53.760;9.678;2022-07-23T06:22:05;14.90;80.73
65374;SHT31;52070;53.760;9.678;2022-07-23T06:24:32;15.04;80.44
65374;SHT31;52070;53.760;9.678;2022-07-23T06:26:59;15.16;80.27
65374;SHT31;52070;53.760;9.678;2022-07-23T06:29:26;15.22;80.05
65374;SHT31;52070;53.760;9.678;2022-07-23T06:31:53;15.22;79.59
65374;SHT31;52070;53.760;9.678;2022-07-23T06:34:21;15.20;79.69
65374;SHT31;52070;53.760;9.678;2022-07-23T06:36:48;15.24;79.96
65374;SHT31;52070;53.760;9.678;2022-07-23T06:39:15;15.37;79.96
65374;SHT31;52070;53.760;9.678;2022-07-23T06:41:42;15.41;79.42
65374;SHT31;52070;53.760;9.678;2022-07-23T06:44:09;15.47;79.58
65374;SHT31;52070;53.760;9.678;2022-07-23T06:46:36;15.61;79.68
65374;SHT31;52070;53.760;9.678;2022-07-23T06:49:03;15.63;78.99
65374;SHT31;52070;53.760;9.678;2022-07-23T06:51:32;15.55;79.09
65374;SHT31;52070;53.760;9.678;2022-07-23T06:53:59;15.63;79.34
65374;SHT31;52070;53.760;9.678;2022-07-23T06:56:26;15.63;79.46
65374;SHT31;52070;53.760;9.678;2022-07-23T06:58:53;15.64;79.23
65374;SHT31;52070;53.760;9.678;2022-07-23T07:01:20;15.64;79.35
65374;SHT31;52070;53.760;9.678;2022-07-23T07:03:47;15.71;79.18
65374;SHT31;52070;53.760;9.678;2022-07-23T07:06:14;15.80;79.86
65374;SHT31;52070;53.760;9.678;2022-07-23T07:08:43;15.78;79.10
65374;SHT31;52070;53.760;9.678;2022-07-23T07:11:10;15.84;79.64
65374;SHT31;52070;53.760;9.678;2022-07-23T07:13:38;15.98;79.07
65374;SHT31;52070;53.760;9.678;2022-07-23T07:16:05;16.00;77.91
65374;SHT31;52070;53.760;9.678;2022-07-23T07:18:32;16.01;77.19
65374;SHT31;52070;53.760;9.678;2022-07-23T07:20:59;16.04;76.98
65374;SHT31;52070;53.760;9.678;2022-07-23T07:23:26;16.01;77.09
65374;SHT31;52070;53.760;9.678;2022-07-23T07:25:54;16.00;77.56
65374;SHT31;52070;53.760;9.678;2022-07-23T07:28:21;15.92;77.79
65374;SHT31;52070;53.760;9.678;2022-07-23T07:30:48;15.98;78.37
65374;SHT31;52070;53.760;9.678;2022-07-23T07:33:15;15.98;77.99
65374;SHT31;52070;53.760;9.678;2022-07-23T07:35:42;15.90;77.99
65374;SHT31;52070;53.760;9.678;2022-07-23T07:38:10;15.78;78.19
65374;SHT31;52070;53.760;9.678;2022-07-23T07:40:37;15.71;78.81
65374;SHT31;52070;53.760;9.678;2022-07-23T07:43:05;15.74;79.58
65374;SHT31;52070;53.760;9.678;2022-07-23T07:45:32;15.75;79.41
65374;SHT31;52070;53.760;9.678;2022-07-23T07:47:59;15.78;79.51
65374;SHT31;52070;53.760;9.678;2022-07-23T07:50:26;15.80;79.30
65374;SHT31;52070;53.760;9.678;2022-07-23T07:52:53;15.77;79.95
65374;SHT31;52070;53.760;9.678;2022-07-23T07:55:20;15.80;80.39
65374;SHT31;52070;53.760;9.678;2022-07-23T07:57:47;15.80;80.88
65374;SHT31;52070;53.760;9.678;2022-07-23T08:00:16;15.87;80.58
65374;SHT31;52070;53.760;9.678;2022-07-23T08:02:45;15.83;80.02
65374;SHT31;52070;53.760;9.678;2022-07-23T08:05:13;15.77;79.62
65374;SHT31;52070;53.760;9.678;2022-07-23T08:07:40;15.87;79.42
65374;SHT31;52070;53.760;9.678;2022-07-23T08:10:08;16.00;79.17
65374;SHT31;52070;53.760;9.678;2022-07-23T08:12:44;16.12;78.82
65374;SHT31;52070;53.760;9.678;2022-07-23T08:15:13;16.22;78.30
65374;SHT31;52070;53.760;9.678;2022-07-23T08:17:42;16.32;78.39
65374;SHT31;52070;53.760;9.678;2022-07-23T08:20:11;16.35;78.03
65374;SHT31;52070;53.760;9.678;2022-07-23T08:22:43;16.39;78.34
65374;SHT31;52070;53.760;9.678;2022-07-23T08:25:11;16.42;77.75
65374;SHT31;52070;53.760;9.678;2022-07-23T08:27:38;16.44;77.21
65374;SHT31;52070;53.760;9.678;2022-07-23T08:30:08;16.36;77.10
65374;SHT31;52070;53.760;9.678;2022-07-23T08:32:54;16.45;77.63
65374;SHT31;52070;53.760;9.678;2022-07-23T08:35:26;16.48;77.06
65374;SHT31;52070;53.760;9.678;2022-07-23T08:37:54;16.49;77.31
65374;SHT31;52070;53.760;9.678;2022-07-23T08:40:21;16.62;77.52
65374;SHT31;52070;53.760;9.678;2022-07-23T08:42:50;16.67;76.97
65374;SHT31;52070;53.760;9.678;2022-07-23T08:45:19;16.63;76.96
65374;SHT31;52070;53.760;9.678;2022-07-23T08:47:49;16.60;77.48
65374;SHT31;52070;53.760;9.678;2022-07-23T08:50:18;16.59;77.79
65374;SHT31;52070;53.760;9.678;2022-07-23T08:52:45;16.51;77.92
65374;SHT31;52070;53.760;9.678;2022-07-23T08:55:12;16.33;78.08
65374;SHT31;52070;53.760;9.678;2022-07-23T08:57:39;16.16;78.33
65374;SHT31;52070;53.760;9.678;2022-07-23T09:00:07;16.01;78.86
65374;SHT31;52070;53.760;9.678;2022-07-23T09:02:39;15.91;80.18
65374;SHT31;52070;53.760;9.678;2022-07-23T09:05:07;15.84;79.07
65374;SHT31;52070;53.760;9.678;2022-07-23T09:07:38;15.87;79.38
65374;SHT31;52070;53.760;9.678;2022-07-23T09:10:08;15.84;77.43
65374;SHT31;52070;53.760;9.678;2022-07-23T09:12:35;15.81;75.79
65374;SHT31;52070;53.760;9.678;2022-07-23T09:15:04;15.88;74.87
65374;SHT31;52070;53.760;9.678;2022-07-23T09:17:37;15.97;74.34
65374;SHT31;52070;53.760;9.678;2022-07-23T09:20:10;16.09;75.07
65374;SHT31;52070;53.760;9.678;2022-07-23T09:22:40;16.12;74.60
65374;SHT31;52070;53.760;9.678;2022-07-23T09:25:12;16.26;74.66
65374;SHT31;52070;53.760;9.678;2022-07-23T09:27:49;16.44;74.80
65374;SHT31;52070;53.760;9.678;2022-07-23T09:30:18;16.63;74.29
65374;SHT31;52070;53.760;9.678;2022-07-23T09:33:03;16.79;74.25
65374;SHT31;52070;53.760;9.678;2022-07-23T09:35:43;16.97;73.87
65374;SHT31;52070;53.760;9.678;2022-07-23T09:38:12;17.17;73.69
65374;SHT31;52070;53.760;9.678;2022-07-23T09:40:39;17.35;74.92
65374;SHT31;52070;53.760;9.678;2022-07-23T09:43:06;17.50;72.98
65374;SHT31;52070;53.760;9.678;2022-07-23T09:45:33;17.35;72.18
65374;SHT31;52070;53.760;9.678;2022-07-23T09:48:11;17.32;71.65
65374;SHT31;52070;53.760;9.678;2022-07-23T09:50:39;17.17;71.55
65374;SHT31;52070;53.760;9.678;2022-07-23T09:53:06;17.13;71.11
65374;SHT31;52070;53.760;9.678;2022-07-23T09:55:35;17.10;70.63
65374;SHT31;52070;53.760;9.678;2022-07-23T09:58:05;17.10;71.96
65374;SHT31;52070;53.760;9.678;2022-07-23T10:00:34;17.14;72.57
65374;SHT31;52070;53.760;9.678;2022-07-23T10:03:01;17.61;72.00
65374;SHT31;52070;53.760;9.678;2022-07-23T10:05:30;17.85;68.63
65374;SHT31;52070;53.760;9.678;2022-07-23T10:07:59;17.89;67.51
65374;SHT31;52070;53.760;9.678;2022-07-23T10:10:28;18.05;68.70
65374;SHT31;52070;53.760;9.678;2022-07-23T10:12:59;18.02;68.89
65374;SHT31;52070;53.760;9.678;2022-07-23T10:15:40;18.17;68.07
65374;SHT31;52070;53.760;9.678;2022-07-23T10:18:09;18.35;67.66
65374;SHT31;52070;53.760;9.678;2022-07-23T10:20:37;18.25;66.13
65374;SHT31;52070;53.760;9.678;2022-07-23T10:23:10;18.43;66.75
65374;SHT31;52070;53.760;9.678;2022-07-23T10:25:46;18.36;64.47
65374;SHT31;52070;53.760;9.678;2022-07-23T10:28:37;18.57;66.96
65374;SHT31;52070;53.760;9.678;2022-07-23T10:31:13;18.81;65.20
65374;SHT31;52070;53.760;9.678;2022-07-23T10:33:48;18.90;64.46
65374;SHT31;52070;53.760;9.678;2022-07-23T10:36:23;19.03;66.42
65374;SHT31;52070;53.760;9.678;2022-07-23T10:38:58;18.84;65.19
65374;SHT31;52070;53.760;9.678;2022-07-23T10:41:34;18.70;66.63
65374;SHT31;52070;53.760;9.678;2022-07-23T10:44:10;18.53;67.53
65374;SHT31;52070;53.760;9.678;2022-07-23T10:46:54;18.42;67.01
65374;SHT31;52070;53.760;9.678;2022-07-23T10:49:28;18.33;66.23
65374;SHT31;52070;53.760;9.678;2022-07-23T10:52:18;18.42;66.76
65374;SHT31;52070;53.760;9.678;2022-07-23T10:54:47;18.56;64.94
65374;SHT31;52070;53.760;9.678;2022-07-23T10:57:15;18.63;63.61
65374;SHT31;52070;53.760;9.678;2022-07-23T11:00:21;18.64;63.73
65374;SHT31;52070;53.760;9.678;2022-07-23T11:02:49;18.73;63.27
65374;SHT31;52070;53.760;9.678;2022-07-23T11:05:18;18.70;63.63
65374;SHT31;52070;53.760;9.678;2022-07-23T11:08:16;18.87;62.85
65374;SHT31;52070;53.760;9.678;2022-07-23T11:10:47;19.15;62.26
65374;SHT31;52070;53.760;9.678;2022-07-23T11:13:32;19.32;61.63
65374;SHT31;52070;53.760;9.678;2022-07-23T11:16:12;19.35;63.28
65374;SHT31;52070;53.760;9.678;2022-07-23T11:19:07;19.41;63.48
65374;SHT31;52070;53.760;9.678;2022-07-23T11:24:24;19.20;63.15
65374;SHT31;52070;53.760;9.678;2022-07-23T11:27:00;19.01;64.33
65374;SHT31;52070;53.760;9.678;2022-07-23T11:29:41;19.15;63.12
65374;SHT31;52070;53.760;9.678;2022-07-23T11:32:17;19.25;64.25
65374;SHT31;52070;53.760;9.678;2022-07-23T11:34:46;19.22;62.88
65374;SHT31;52070;53.760;9.678;2022-07-23T11:37:33;19.50;61.26
65374;SHT31;52070;53.760;9.678;2022-07-23T11:40:01;19.47;62.41
65374;SHT31;52070;53.760;9.678;2022-07-23T11:42:28;19.44;61.05
65374;SHT31;52070;53.760;9.678;2022-07-23T11:44:55;19.63;62.18
65374;SHT31;52070;53.760;9.678;2022-07-23T11:47:25;19.76;59.50
65374;SHT31;52070;53.760;9.678;2022-07-23T11:49:53;19.86;59.13
65374;SHT31;52070;53.760;9.678;2022-07-23T11:52:21;19.79;58.81
65374;SHT31;52070;53.760;9.678;2022-07-23T11:54:50;19.78;59.65
65374;SHT31;52070;53.760;9.678;2022-07-23T11:57:19;19.96;62.20
65374;SHT31;52070;53.760;9.678;2022-07-23T11:59:47;20.47;59.42
65374;SHT31;52070;53.760;9.678;2022-07-23T12:02:16;20.83;57.74
65374;SHT31;52070;53.760;9.678;2022-07-23T12:04:46;21.02;54.59
65374;SHT31;52070;53.760;9.678;2022-07-23T12:07:30;21.25;55.99
65374;SHT31;52070;53.760;9.678;2022-07-23T12:09:58;20.71;55.62
65374;SHT31;52070;53.760;9.678;2022-07-23T12:12:26;20.33;55.60
65374;SHT31;52070;53.760;9.678;2022-07-23T12:14:55;20.32;56.34
65374;SHT31;52070;53.760;9.678;2022-07-23T12:17:28;20.30;56.33
65374;SHT31;52070;53.760;9.678;2022-07-23T12:19:58;20.29;55.77
65374;SHT31;52070;53.760;9.678;2022-07-23T12:22:34;20.29;55.61
65374;SHT31;52070;53.760;9.678;2022-07-23T12:25:03;20.34;56.00
65374;SHT31;52070;53.760;9.678;2022-07-23T12:27:31;20.32;55.61
65374;SHT31;52070;53.760;9.678;2022-07-23T12:29:58;20.30;55.11
65374;SHT31;52070;53.760;9.678;2022-07-23T12:32:28;20.12;55.07
65374;SHT31;52070;53.760;9.678;2022-07-23T12:35:05;20.22;56.41
65374;SHT31;52070;53.760;9.678;2022-07-23T12:37:34;20.02;56.27
65374;SHT31;52070;53.760;9.678;2022-07-23T12:40:25;19.85;57.09
65374;SHT31;52070;53.760;9.678;2022-07-23T12:42:55;19.82;59.15
65374;SHT31;52070;53.760;9.678;2022-07-23T12:45:23;19.68;58.42
65374;SHT31;52070;53.760;9.678;2022-07-23T12:47:52;19.66;60.62
65374;SHT31;52070;53.760;9.678;2022-07-23T12:50:55;19.62;62.23
65374;SHT31;52070;53.760;9.678;2022-07-23T12:53:25;19.63;63.64
65374;SHT31;52070;53.760;9.678;2022-07-23T12:55:59;19.68;62.85
65374;SHT31;52070;53.760;9.678;2022-07-23T12:58:26;19.58;62.92
65374;SHT31;52070;53.760;9.678;2022-07-23T13:01:02;19.28;61.58
65374;SHT31;52070;53.760;9.678;2022-07-23T13:03:33;18.97;61.74
65374;SHT31;52070;53.760;9.678;2022-07-23T13:06:04;18.84;62.41
65374;SHT31;52070;53.760;9.678;2022-07-23T13:08:32;19.17;63.42
65374;SHT31;52070;53.760;9.678;2022-07-23T13:11:00;19.57;62.10
65374;SHT31;52070;53.760;9.678;2022-07-23T13:13:29;19.81;61.14
65374;SHT31;52070;53.760;9.678;2022-07-23T13:15:57;19.62;60.69
65374;SHT31;52070;53.760;9.678;2022-07-23T13:18:25;19.32;60.49
65374;SHT31;52070;53.760;9.678;2022-07-23T13:20:52;19.59;60.74
65374;SHT31;52070;53.760;9.678;2022-07-23T13:23:21;19.66;59.35
65374;SHT31;52070;53.760;9.678;2022-07-23T13:25:48;19.51;59.18
65374;SHT31;52070;53.760;9.678;2022-07-23T13:28:17;19.44;61.97
65374;SHT31;52070;53.760;9.678;2022-07-23T13:30:45;19.65;58.59
65374;SHT31;52070;53.760;9.678;2022-07-23T13:33:13;19.27;59.48
65374;SHT31;52070;53.760;9.678;2022-07-23T13:35:40;19.20;60.38
65374;SHT31;52070;53.760;9.678;2022-07-23T13:38:07;19.08;60.83
65374;SHT31;52070;53.760;9.678;2022-07-23T13:40:37;19.20;60.92
65374;SHT31;52070;53.760;9.678;2022-07-23T13:43:05;19.45;60.70
65374;SHT31;52070;53.760;9.678;2022-07-23T13:45:32;19.66;61.21
65374;SHT31;52070;53.760;9.678;2022-07-23T13:48:00;19.82;61.67
65374;SHT31;52070;53.760;9.678;2022-07-23T13:50:27;19.96;60.11
65374;SHT31;52070;53.760;9.678;2022-07-23T13:52:54;20.12;58.15
65374;SHT31;52070;53.760;9.678;2022-07-23T13:55:22;20.16;57.29
65374;SHT31;52070;53.760;9.678;2022-07-23T13:57:50;19.82;57.09
65374;SHT31;52070;53.760;9.678;2022-07-23T14:00:17;19.75;60.11
65374;SHT31;52070;53.760;9.678;2022-07-23T14:02:44;19.61;58.70
65374;SHT31;52070;53.760;9.678;2022-07-23T14:05:11;19.44;58.12
65374;SHT31;52070;53.760;9.678;2022-07-23T14:07:41;19.58;59.43
65374;SHT31;52070;53.760;9.678;2022-07-23T14:10:10;19.79;59.52
65374;SHT31;52070;53.760;9.678;2022-07-23T14:12:38;19.83;59.91
65374;SHT31;52070;53.760;9.678;2022-07-23T14:15:07;19.68;60.04
65374;SHT31;52070;53.760;9.678;2022-07-23T14:17:36;19.38;60.49
65374;SHT31;52070;53.760;9.678;2022-07-23T14:20:04;19.24;61.12
65374;SHT31;52070;53.760;9.678;2022-07-23T14:22:31;19.14;60.69
65374;SHT31;52070;53.760;9.678;2022-07-23T14:24:59;19.14;61.96
65374;SHT31;52070;53.760;9.678;2022-07-23T14:27:27;19.11;61.36
65374;SHT31;52070;53.760;9.678;2022-07-23T14:29:55;19.17;61.30
65374;SHT31;52070;53.760;9.678;2022-07-23T14:32:24;19.22;60.02
65374;SHT31;52070;53.760;9.678;2022-07-23T14:34:51;19.35;60.36
65374;SHT31;52070;53.760;9.678;2022-07-23T14:37:18;19.10;60.13
65374;SHT31;52070;53.760;9.678;2022-07-23T14:39:46;18.96;61.15
65374;SHT31;52070;53.760;9.678;2022-07-23T14:42:13;18.94;61.33
65374;SHT31;52070;53.760;9.678;2022-07-23T14:44:40;18.81;62.62
65374;SHT31;52070;53.760;9.678;2022-07-23T14:47:08;18.76;62.96
65374;SHT31;52070;53.760;9.678;2022-07-23T14:49:37;18.67;62.48
65374;SHT31;52070;53.760;9.678;2022-07-23T14:52:05;18.70;62.38
65374;SHT31;52070;53.760;9.678;2022-07-23T14:54:33;18.78;62.39
65374;SHT31;52070;53.760;9.678;2022-07-23T14:57:01;18.98;62.27
65374;SHT31;52070;53.760;9.678;2022-07-23T14:59:29;19.07;61.10
65374;SHT31;52070;53.760;9.678;2022-07-23T15:01:57;19.00;60.65
65374;SHT31;52070;53.760;9.678;2022-07-23T15:04:24;19.00;59.89
65374;SHT31;52070;53.760;9.678;2022-07-23T15:06:53;19.07;58.99
65374;SHT31;52070;53.760;9.678;2022-07-23T15:09:20;19.22;59.20
65374;SHT31;52070;53.760;9.678;2022-07-23T15:11:47;19.21;58.81
65374;SHT31;52070;53.760;9.678;2022-07-23T15:14:14;19.24;59.04
65374;SHT31;52070;53.760;9.678;2022-07-23T15:16:41;19.35;57.85
65374;SHT31;52070;53.760;9.678;2022-07-23T15:19:08;19.41;58.14
65374;SHT31;52070;53.760;9.678;2022-07-23T15:21:35;19.59;57.66
65374;SHT31;52070;53.760;9.678;2022-07-23T15:24:04;19.83;56.93
65374;SHT31;52070;53.760;9.678;2022-07-23T15:26:31;20.14;56.26
65374;SHT31;52070;53.760;9.678;2022-07-23T15:28:58;20.56;56.29
65374;SHT31;52070;53.760;9.678;2022-07-23T15:31:27;20.95;54.75
65374;SHT31;52070;53.760;9.678;2022-07-23T15:33:54;20.81;54.73
65374;SHT31;52070;53.760;9.678;2022-07-23T15:36:21;20.90;54.90
65374;SHT31;52070;53.760;9.678;2022-07-23T15:38:48;20.83;54.61
65374;SHT31;52070;53.760;9.678;2022-07-23T15:41:17;20.90;52.67
65374;SHT31;52070;53.760;9.678;2022-07-23T15:43:45;20.67;53.53